Time;durP1;ratioP1;P1;durP2;ratioP2;P2;SDS_P1;SDS_P2;PMS_P1;PMS_P2;Temp;Humidity;BMP_temperature;BMP_pressure;BME280_temperature;BME280_humidity;BME280_pressure;Samples;Min_cycle;Max_cycle;Signal;HPM_P1;HPM_P2
2022/08/08 00:01:57;;;;;;;11.00;10.13;;;;;;;24.29;94.83;99283.84;5109204;28;20202;-67
2022/08/08 00:04:35;;;;;;;12.43;11.47;;;;;;;24.27;94.91;99284.91;5109368;28;20727;-67
2022/08/08 00:07:13;;;;;;;11.83;10.63;;;;;;;24.21;94.43;99281.06;5107952;28;20233;-67
2022/08/08 00:09:59;;;;;;;10.67;9.87;;;;;;;24.19;94.66;99287.41;5109878;28;20202;-67
2022/08/08 00:12:30;;;;;;;11.60;10.80;;;;;;;24.14;94.81;99289.56;5107913;28;20669;-67
2022/08/08 00:15:03;;;;;;;11.07;10.23;;;;;;;24.08;95.35;99284.84;5109769;28;20214;-67
2022/08/08 00:17:40;;;;;;;10.57;9.67;;;;;;;24.00;95.69;99288.16;5107029;28;20195;-67
2022/08/08 00:20:11;;;;;;;12.37;11.43;;;;;;;23.98;95.89;99284.81;5109979;28;20199;-67
2022/08/08 00:22:43;;;;;;;11.63;10.47;;;;;;;23.85;96.17;99268.50;5109081;28;20248;-68
2022/08/08 00:25:13;;;;;;;11.53;10.53;;;;;;;23.87;96.53;99272.69;5109444;28;20674;-67
2022/08/08 00:27:41;;;;;;;11.40;10.67;;;;;;;23.75;97.21;99258.00;5109737;28;20198;-67
2022/08/08 00:30:10;;;;;;;9.70;9.10;;;;;;;23.81;96.78;99277.63;5108597;28;20195;-67
2022/08/08 00:32:43;;;;;;;11.20;10.13;;;;;;;23.75;97.26;99272.91;5106885;28;20195;-67
2022/08/08 00:35:32;;;;;;;10.17;9.53;;;;;;;23.70;98.18;99281.16;5110176;28;20678;-67
2022/08/08 00:38:17;;;;;;;10.97;9.67;;;;;;;23.67;97.62;99276.19;5112006;27;20586;-67
2022/08/08 00:41:20;;;;;;;10.63;9.73;;;;;;;23.69;97.75;99276.03;5113952;28;20207;-67
2022/08/08 00:44:17;;;;;;;10.13;9.43;;;;;;;23.68;97.51;99277.84;5110093;28;20194;-67
2022/08/08 00:47:16;;;;;;;9.10;8.27;;;;;;;23.64;97.29;99286.91;5113750;28;20195;-67
2022/08/08 00:50:10;;;;;;;11.37;8.87;;;;;;;23.66;96.92;99292.84;5110431;28;20206;-67
2022/08/08 00:53:05;;;;;;;9.17;8.33;;;;;;;23.60;97.14;99290.75;5113247;28;20195;-67
2022/08/08 00:56:08;;;;;;;8.17;7.40;;;;;;;23.52;97.93;99298.44;5111299;28;20194;-67
2022/08/08 00:58:57;;;;;;;8.60;8.10;;;;;;;23.41;98.38;99291.50;5110491;28;20685;-67
2022/08/08 01:01:33;;;;;;;8.83;8.23;;;;;;;23.43;98.04;99294.78;5113567;27;20205;-68
2022/08/08 01:04:32;;;;;;;8.43;8.00;;;;;;;23.35;98.83;99296.38;5111723;28;20197;-67
2022/08/08 01:07:49;;;;;;;8.77;8.27;;;;;;;23.31;98.80;99305.44;5112388;28;20242;-67
2022/08/08 01:10:51;;;;;;;8.77;8.17;;;;;;;23.29;98.95;99307.38;5112706;27;20217;-67
2022/08/08 01:14:03;;;;;;;9.23;8.63;;;;;;;23.31;99.12;99305.44;5109963;28;20642;-67
2022/08/08 01:17:05;;;;;;;7.97;7.53;;;;;;;23.32;98.78;99309.72;5029117;28;20201;-67
2022/08/08 01:20:23;;;;;;;8.93;8.33;;;;;;;23.26;98.81;99297.16;4999121;28;20706;-67
2022/08/08 01:23:14;;;;;;;8.30;7.80;;;;;;;23.31;98.52;99301.03;5110818;27;20205;-67
2022/08/08 01:26:04;;;;;;;8.77;8.17;;;;;;;23.24;98.26;99288.59;5111829;28;20211;-67
2022/08/08 01:28:56;;;;;;;9.30;8.70;;;;;;;23.31;98.53;99293.19;5112177;27;20201;-67
2022/08/08 01:31:57;;;;;;;9.00;8.20;;;;;;;23.07;98.65;99249.97;5112757;28;20658;-68
2022/08/08 01:34:52;;;;;;;9.47;8.73;;;;;;;23.31;98.28;99294.97;5112349;28;20206;-68
2022/08/08 01:37:54;;;;;;;10.03;9.03;;;;;;;23.30;98.43;99294.13;5110546;28;20191;-67
2022/08/08 01:40:29;;;;;;;9.53;7.93;;;;;;;23.26;98.07;99297.16;5111517;28;20582;-67
2022/08/08 01:43:06;;;;;;;9.10;8.40;;;;;;;23.12;98.44;99289.63;5112567;28;20662;-67
2022/08/08 01:45:55;;;;;;;10.00;9.13;;;;;;;23.18;98.31;99296.94;5108153;28;20194;-67
2022/08/08 01:48:42;;;;;;;8.83;8.27;;;;;;;23.10;98.01;99302.84;5108157;27;20744;-67
2022/08/08 01:51:43;;;;;;;9.60;8.80;;;;;;;23.07;99.10;99303.06;5110275;28;20202;-67
2022/08/08 01:54:23;;;;;;;9.33;8.53;;;;;;;23.02;98.49;99316.53;5106504;28;20708;-67
2022/08/08 01:57:05;;;;;;;9.17;8.67;;;;;;;23.01;98.76;99314.88;5108103;27;20198;-67
2022/08/08 02:00:00;;;;;;;7.80;7.40;;;;;;;23.02;98.84;99307.88;5110852;28;20252;-67
2022/08/08 02:02:37;;;;;;;9.43;8.73;;;;;;;23.03;99.08;99306.91;5112029;28;20209;-67
2022/08/08 02:05:20;;;;;;;9.27;8.63;;;;;;;22.97;98.38;99303.00;5109382;28;20198;-67
2022/08/08 02:08:04;;;;;;;10.20;9.50;;;;;;;22.93;98.25;99306.84;5108859;28;20282;-67
2022/08/08 02:10:53;;;;;;;8.60;8.10;;;;;;;22.97;98.21;99310.84;5110130;27;20662;-67
2022/08/08 02:13:26;;;;;;;9.60;9.00;;;;;;;22.91;98.88;99311.34;5111523;28;20195;-67
2022/08/08 02:16:06;;;;;;;10.00;9.27;;;;;;;22.83;98.72;99311.16;5109487;27;21456;-67
2022/08/08 02:18:39;;;;;;;11.00;10.17;;;;;;;22.76;99.07;99304.78;5109592;27;20259;-67
2022/08/08 02:24:15;;;;;;;9.40;8.80;;;;;;;22.61;100.00;99308.63;5110175;27;20692;-67
2022/08/08 02:26:50;;;;;;;9.00;8.40;;;;;;;22.49;100.00;99305.19;5108300;28;20197;-67
2022/08/08 02:29:26;;;;;;;8.77;8.27;;;;;;;22.42;100.00;99290.16;5110892;27;20742;-67
2022/08/08 02:32:13;;;;;;;9.63;8.90;;;;;;;22.48;100.00;99305.34;5111579;28;20194;-67
2022/08/08 02:35:24;;;;;;;9.20;8.50;;;;;;;22.48;100.00;99306.16;5109327;28;20214;-67
2022/08/08 02:38:16;;;;;;;9.67;8.97;;;;;;;22.49;100.00;99294.75;5085897;28;20207;-67
2022/08/08 02:41:03;;;;;;;10.63;9.80;;;;;;;22.44;100.00;99314.34;5108075;27;20212;-67
2022/08/08 02:44:26;;;;;;;8.97;8.23;;;;;;;22.35;100.00;99304.66;5111706;28;20195;-67
2022/08/08 02:47:15;;;;;;;9.30;8.70;;;;;;;22.22;100.00;99309.19;5024954;28;20685;-67
2022/08/08 02:50:20;;;;;;;9.63;9.03;;;;;;;22.14;100.00;99311.56;5028052;28;20900;-67
2022/08/08 02:53:23;;;;;;;9.43;8.80;;;;;;;21.99;100.00;99290.13;5110421;27;20216;-67
2022/08/08 02:56:49;;;;;;;8.43;8.03;;;;;;;21.98;100.00;99311.94;5109187;28;20222;-67
2022/08/08 03:00:07;;;;;;;9.63;8.93;;;;;;;21.97;100.00;99311.09;5053846;28;20259;-67
2022/08/08 03:03:09;;;;;;;9.07;8.37;;;;;;;21.95;100.00;99314.78;5107980;28;20202;-67
2022/08/08 03:06:13;;;;;;;9.30;8.60;;;;;;;21.95;100.00;99318.25;5110079;28;20539;-67
2022/08/08 03:09:24;;;;;;;9.77;9.07;;;;;;;21.95;100.00;99317.41;5111126;28;20205;-67
2022/08/08 03:12:20;;;;;;;8.87;8.27;;;;;;;21.89;100.00;99323.94;5109765;28;20231;-67
2022/08/08 03:14:56;;;;;;;11.20;10.40;;;;;;;21.89;100.00;99333.53;5110282;28;20260;-67
2022/08/08 03:17:29;;;;;;;10.73;9.93;;;;;;;21.88;100.00;99330.06;5110230;28;20671;-67
2022/08/08 03:20:05;;;;;;;11.33;10.17;;;;;;;21.88;100.00;99318.78;5109700;27;20208;-67
2022/08/08 03:22:32;;;;;;;10.47;9.67;;;;;;;21.89;100.00;99323.94;5109914;28;20293;-67
2022/08/08 03:25:02;;;;;;;9.37;8.67;;;;;;;21.90;100.00;99325.59;5110431;28;20199;-67
2022/08/08 03:27:35;;;;;;;9.70;8.97;;;;;;;21.95;100.00;99327.84;5107102;28;20257;-67
2022/08/08 03:30:06;;;;;;;9.23;8.50;;;;;;;21.96;100.00;99332.97;5110722;28;20209;-67
2022/08/08 03:35:18;;;;;;;8.90;8.30;;;;;;;21.95;100.00;99341.72;5109583;28;20362;-67
2022/08/08 03:37:46;;;;;;;8.73;8.13;;;;;;;21.93;100.00;99341.03;5107461;28;20200;-67
2022/08/08 03:40:16;;;;;;;9.07;8.57;;;;;;;21.95;100.00;99348.72;5110864;28;20206;-67
2022/08/08 03:42:43;;;;;;;9.30;8.70;;;;;;;21.86;100.00;99329.38;5108085;28;20673;-67
2022/08/08 03:45:18;;;;;;;8.80;8.40;;;;;;;21.96;100.00;99350.41;5106327;28;20207;-67
2022/08/08 03:47:54;;;;;;;9.63;8.67;;;;;;;21.91;100.00;99352.50;5110460;28;20198;-67
2022/08/08 03:50:20;;;;;;;10.97;9.00;;;;;;;21.87;100.00;99351.88;5109755;28;20203;-67
2022/08/08 03:52:47;;;;;;;9.10;8.23;;;;;;;21.79;100.00;99338.63;5106099;28;20570;-67
2022/08/08 03:55:18;;;;;;;8.93;8.43;;;;;;;21.96;100.00;99356.44;5110221;28;20215;-67
2022/08/08 03:57:46;;;;;;;10.03;8.87;;;;;;;22.02;100.00;99354.31;5108693;28;20213;-67
2022/08/08 04:00:15;;;;;;;9.97;9.07;;;;;;;22.04;100.00;99357.63;5109396;28;20212;-67
2022/08/08 04:02:42;;;;;;;9.43;8.67;;;;;;;21.95;100.00;99351.34;5109713;28;20201;-67
2022/08/08 04:05:10;;;;;;;9.97;8.97;;;;;;;22.00;100.00;99351.84;5106253;28;20201;-67
2022/08/08 04:07:38;;;;;;;8.53;7.93;;;;;;;22.00;100.00;99353.59;5109420;28;20279;-67
2022/08/08 04:10:08;;;;;;;8.73;8.03;;;;;;;22.03;100.00;99361.19;5110152;28;20202;-67
2022/08/08 04:12:36;;;;;;;9.20;8.70;;;;;;;21.96;100.00;99364.28;5107682;28;20607;-67
2022/08/08 04:15:04;;;;;;;10.00;9.27;;;;;;;21.95;100.00;99365.22;5108945;28;20226;-67
2022/08/08 04:17:31;;;;;;;9.20;8.50;;;;;;;21.93;100.00;99361.91;5107986;28;20202;-67
2022/08/08 04:19:58;;;;;;;9.47;8.67;;;;;;;21.89;100.00;99362.25;5109420;28;20247;-68
2022/08/08 04:22:27;;;;;;;9.80;9.03;;;;;;;21.94;100.00;99374.00;5109165;28;20676;-67
2022/08/08 04:24:54;;;;;;;9.43;8.73;;;;;;;21.97;100.00;99372.94;5105338;28;20814;-67
2022/08/08 04:27:22;;;;;;;8.70;8.17;;;;;;;21.97;100.00;99373.75;5106034;28;20208;-67
2022/08/08 04:29:51;;;;;;;9.87;8.87;;;;;;;22.00;100.00;99369.25;5107914;28;20249;-67
2022/08/08 04:32:18;;;;;;;9.27;8.60;;;;;;;22.12;100.00;99383.97;5109619;28;20206;-67
2022/08/08 04:34:45;;;;;;;9.20;8.50;;;;;;;22.13;100.00;99362.16;5105963;28;20599;-67
2022/08/08 04:37:13;;;;;;;9.23;8.60;;;;;;;22.30;100.00;99365.06;5108738;28;20741;-67
2022/08/08 04:39:40;;;;;;;10.10;9.20;;;;;;;22.52;100.00;99377.25;5108679;28;20294;-68
2022/08/08 04:42:07;;;;;;;9.53;8.77;;;;;;;22.66;100.00;99382.25;5109101;28;20206;-67
2022/08/08 04:44:34;;;;;;;9.20;8.60;;;;;;;22.74;100.00;99386.88;5103258;28;20210;-67
2022/08/08 04:47:03;;;;;;;9.13;8.33;;;;;;;22.91;100.00;99381.94;5109310;28;20206;-68
2022/08/08 04:49:30;;;;;;;9.13;8.57;;;;;;;23.16;100.00;99391.25;5108107;28;20201;-68
2022/08/08 04:51:57;;;;;;;9.20;8.27;;;;;;;23.32;99.95;99385.59;5107448;28;20199;-67
2022/08/08 04:54:24;;;;;;;10.13;9.43;;;;;;;23.49;99.71;99387.63;5109979;28;20198;-67
2022/08/08 04:56:51;;;;;;;8.93;8.13;;;;;;;23.56;97.90;99383.56;5107434;28;20198;-67
2022/08/08 04:59:18;;;;;;;8.90;8.00;;;;;;;23.82;96.89;99395.28;5109785;28;20191;-67
2022/08/08 05:01:45;;;;;;;10.10;7.80;;;;;;;23.89;94.99;99388.56;5108929;28;20214;-67
2022/08/08 05:04:13;;;;;;;8.67;8.17;;;;;;;24.07;96.64;99398.44;5109306;28;20674;-68
2022/08/08 05:06:40;;;;;;;8.53;8.07;;;;;;;24.10;95.64;99390.31;5104433;28;20218;-68
2022/08/08 05:09:06;;;;;;;8.37;7.87;;;;;;;24.42;96.66;99401.50;5107976;28;20210;-67
2022/08/08 05:11:33;;;;;;;7.87;7.37;;;;;;;24.71;94.22;99399.78;5107322;28;20214;-67
2022/08/08 05:14:00;;;;;;;9.77;8.07;;;;;;;25.02;91.58;99403.97;5108379;28;20255;-67
2022/08/08 05:16:27;;;;;;;8.53;7.97;;;;;;;25.21;91.62;99408.38;5107123;28;20591;-68
2022/08/08 05:18:55;;;;;;;12.70;7.73;;;;;;;25.46;89.10;99414.88;5108523;28;20190;-68
2022/08/08 05:21:23;;;;;;;7.67;7.27;;;;;;;25.57;87.00;99409.50;5109350;28;20255;-68
2022/08/08 05:23:53;;;;;;;8.20;7.50;;;;;;;25.61;87.01;99408.25;5112314;28;20194;-68
2022/08/08 05:26:20;;;;;;;8.33;7.83;;;;;;;25.67;87.04;99399.81;5110509;27;20201;-67
2022/08/08 05:28:47;;;;;;;9.03;8.17;;;;;;;25.86;86.37;99420.78;5113469;28;20199;-68
2022/08/08 05:31:14;;;;;;;7.70;7.30;;;;;;;26.09;86.77;99411.56;5112903;28;20210;-68
2022/08/08 05:33:41;;;;;;;8.17;7.67;;;;;;;26.28;84.34;99417.75;5112243;28;20203;-68
2022/08/08 05:36:10;;;;;;;7.97;7.33;;;;;;;26.38;85.60;99415.91;5109085;27;20210;-69
2022/08/08 05:38:46;;;;;;;8.03;7.33;;;;;;;26.38;82.15;99415.91;5106395;28;20659;-68
2022/08/08 05:41:16;;;;;;;8.00;7.53;;;;;;;26.46;84.74;99423.91;5111546;28;20198;-67
2022/08/08 05:43:46;;;;;;;7.63;7.13;;;;;;;26.59;83.45;99409.41;5105956;28;20216;-69
2022/08/08 05:46:14;;;;;;;7.93;7.53;;;;;;;26.79;84.57;99422.44;5111063;27;20195;-68
2022/08/08 05:48:42;;;;;;;7.67;7.27;;;;;;;26.91;82.00;99419.50;5111511;27;20635;-68
2022/08/08 05:51:09;;;;;;;8.97;7.50;;;;;;;27.17;84.60;99418.75;5112327;28;20237;-68
2022/08/08 05:53:35;;;;;;;7.97;7.57;;;;;;;27.42;82.63;99434.59;5111809;28;20213;-67
2022/08/08 05:56:06;;;;;;;7.33;6.83;;;;;;;27.63;80.42;99434.28;5110813;28;20584;-68
2022/08/08 05:58:34;;;;;;;7.50;7.10;;;;;;;27.79;79.50;99428.31;5110756;27;20691;-68
2022/08/08 06:01:02;;;;;;;8.10;7.70;;;;;;;27.79;79.04;99423.84;5109211;28;20198;-68
2022/08/08 06:03:30;;;;;;;6.97;6.47;;;;;;;28.03;78.56;99442.47;5110898;28;20670;-68
2022/08/08 06:06:00;;;;;;;7.63;7.03;;;;;;;28.16;77.36;99434.16;5111719;27;20201;-68
2022/08/08 06:08:29;;;;;;;7.17;6.73;;;;;;;28.39;75.85;99434.44;5110670;28;20199;-68
2022/08/08 06:10:58;;;;;;;7.27;6.77;;;;;;;28.46;76.89;99435.47;5110402;28;20205;-68
2022/08/08 06:13:28;;;;;;;6.83;6.43;;;;;;;28.49;77.76;99435.97;5108469;27;20206;-68
2022/08/08 06:15:55;;;;;;;6.23;5.83;;;;;;;28.53;73.55;99437.28;5108104;28;20228;-68
2022/08/08 06:18:24;;;;;;;6.50;6.00;;;;;;;28.45;75.01;99423.25;5111344;28;20194;-68
2022/08/08 06:20:53;;;;;;;6.27;5.87;;;;;;;28.76;75.44;99442.81;5105847;27;20202;-68
2022/08/08 06:23:21;;;;;;;6.03;5.73;;;;;;;28.95;74.58;99447.81;5110483;28;20195;-68
2022/08/08 06:25:58;;;;;;;6.50;6.00;;;;;;;29.26;71.61;99445.44;5108675;27;20211;-68
2022/08/08 06:28:30;;;;;;;6.13;5.73;;;;;;;29.51;72.26;99427.78;5111043;28;20671;-71
2022/08/08 06:31:00;;;;;;;7.40;6.88;;;;;;;29.85;69.74;99449.59;5110967;27;20195;-68
2022/08/08 06:33:36;;;;;;;6.37;6.07;;;;;;;29.88;70.96;99451.06;5111035;28;20203;-68
2022/08/08 06:36:04;;;;;;;6.18;5.80;;;;;;;30.04;72.89;99451.84;5107311;27;20219;-67
2022/08/08 06:38:35;;;;;;;6.43;5.93;;;;;;;30.18;71.34;99450.31;5112389;28;20202;-67
2022/08/08 06:41:05;;;;;;;6.65;6.00;;;;;;;30.41;66.02;99453.06;5112316;28;20646;-67
2022/08/08 06:43:36;;;;;;;6.07;5.75;;;;;;;30.71;66.11;99450.47;5112302;27;20203;-67
2022/08/08 06:46:03;;;;;;;6.13;5.82;;;;;;;30.62;66.38;99440.09;5113647;27;20214;-67
2022/08/08 06:48:30;;;;;;;5.30;5.00;;;;;;;30.83;64.35;99453.53;5112659;28;20194;-67
2022/08/08 06:50:57;;;;;;;5.68;5.38;;;;;;;30.94;65.75;99450.50;5112179;27;20579;-66
2022/08/08 06:53:26;;;;;;;5.93;5.57;;;;;;;31.05;66.41;99441.38;5112933;28;20210;-67
2022/08/08 06:55:53;;;;;;;6.20;5.55;;;;;;;31.17;66.76;99451.38;5113291;27;20210;-67
2022/08/08 06:58:20;;;;;;;5.80;5.50;;;;;;;31.29;64.06;99443.00;5112963;28;20194;-66
2022/08/08 07:00:51;;;;;;;7.22;5.35;;;;;;;31.50;65.18;99441.38;5112595;28;20659;-67
2022/08/08 07:03:31;;;;;;;5.07;4.82;;;;;;;31.72;61.04;99452.94;5110635;28;20248;-67
2022/08/08 07:05:59;;;;;;;4.55;4.20;;;;;;;31.77;57.74;99458.53;5112214;28;20666;-67
2022/08/08 07:08:33;;;;;;;5.05;4.85;;;;;;;31.81;61.68;99459.81;5112674;28;20205;-67
2022/08/08 07:11:04;;;;;;;4.82;4.40;;;;;;;31.93;58.94;99460.19;5112467;28;20251;-67
2022/08/08 07:13:39;;;;;;;4.47;4.28;;;;;;;32.19;59.83;99458.78;5109552;28;20252;-69
2022/08/08 07:16:15;;;;;;;4.55;4.35;;;;;;;32.32;59.20;99454.66;5112208;28;20218;-66
2022/08/08 07:18:55;;;;;;;4.80;4.35;;;;;;;32.51;57.23;99462.03;5106756;28;20281;-67
2022/08/08 07:21:28;;;;;;;4.65;4.03;;;;;;;32.72;56.68;99456.84;5112906;28;20613;-67
2022/08/08 07:23:59;;;;;;;4.43;4.03;;;;;;;32.93;55.38;99454.22;5111972;28;20198;-67
2022/08/08 07:26:27;;;;;;;4.93;4.60;;;;;;;33.10;53.96;99453.00;5101604;28;20203;-67
2022/08/08 07:28:54;;;;;;;5.30;4.90;;;;;;;33.20;53.20;99453.50;5108959;28;20194;-67
2022/08/08 07:31:24;;;;;;;3.90;3.70;;;;;;;33.32;52.68;99455.63;5112829;28;20198;-67
2022/08/08 07:33:52;;;;;;;3.95;3.75;;;;;;;33.38;54.44;99457.56;5112623;28;20194;-67
2022/08/08 07:36:22;;;;;;;4.55;4.28;;;;;;;33.53;53.85;99445.00;5109751;28;20214;-68
2022/08/08 07:38:51;;;;;;;4.22;3.90;;;;;;;33.69;53.04;99458.06;5111782;28;20210;-68
2022/08/08 07:41:19;;;;;;;3.92;3.63;;;;;;;33.75;50.03;99446.63;5111867;28;20199;-68
2022/08/08 07:43:49;;;;;;;3.00;2.90;;;;;;;33.84;46.90;99456.13;5111712;28;20199;-68
2022/08/08 07:46:15;;;;;;;4.60;3.10;;;;;;;33.96;48.29;99459.06;5110703;28;20206;-68
2022/08/08 07:48:44;;;;;;;3.05;2.85;;;;;;;34.07;45.36;99461.19;5111361;28;20206;-68
2022/08/08 07:51:11;;;;;;;3.35;3.15;;;;;;;34.23;43.79;99461.72;5111258;28;20244;-69
2022/08/08 07:53:44;;;;;;;3.25;3.05;;;;;;;34.50;44.36;99461.84;5111496;28;20249;-69
2022/08/08 07:56:16;;;;;;;3.38;3.17;;;;;;;34.82;40.95;99450.53;5109460;28;20215;-68
2022/08/08 07:58:44;;;;;;;5.25;3.00;;;;;;;35.02;40.43;99456.75;5111311;28;20203;-69
2022/08/08 08:01:14;;;;;;;5.03;3.38;;;;;;;35.08;39.60;99457.78;5110888;28;20210;-71
2022/08/08 08:03:55;;;;;;;3.22;3.03;;;;;;;35.17;43.47;99449.41;5103008;28;20207;-72
2022/08/08 08:06:22;;;;;;;3.63;3.42;;;;;;;35.06;42.20;99449.97;5107446;28;20490;-71
2022/08/08 08:08:54;;;;;;;3.25;3.05;;;;;;;35.31;43.54;99450.25;5107225;28;20255;-70
2022/08/08 08:11:22;;;;;;;3.75;3.45;;;;;;;35.42;43.82;99446.97;5110815;28;20260;-70
2022/08/08 08:13:56;;;;;;;4.53;3.20;;;;;;;35.47;43.22;99433.03;5109001;28;20206;-70
2022/08/08 08:16:25;;;;;;;3.10;2.95;;;;;;;35.55;39.92;99446.13;5108145;28;20706;-70
2022/08/08 08:18:57;;;;;;;3.10;3.00;;;;;;;35.63;39.33;99448.66;5107720;28;20655;-70
2022/08/08 08:21:28;;;;;;;3.97;2.63;;;;;;;35.79;40.41;99442.88;5111485;28;20198;-70
2022/08/08 08:23:55;;;;;;;4.30;2.63;;;;;;;35.83;40.34;99434.25;5107608;28;20195;-70
2022/08/08 08:26:23;;;;;;;3.03;2.45;;;;;;;35.98;39.97;99442.03;5110966;28;20193;-70
2022/08/08 08:28:50;;;;;;;2.95;2.85;;;;;;;36.11;38.18;99444.69;5110962;28;20206;-69
2022/08/08 08:31:17;;;;;;;3.10;2.75;;;;;;;36.11;37.39;99446.53;5108520;28;20290;-70
2022/08/08 08:33:43;;;;;;;3.38;2.78;;;;;;;36.16;38.22;99444.06;5109555;28;20692;-69
2022/08/08 08:36:13;;;;;;;29.65;4.65;;;;;;;36.27;38.26;99441.56;5110851;28;20225;-71
2022/08/08 08:38:41;;;;;;;3.45;2.63;;;;;;;36.19;35.25;99444.47;5107753;28;20620;-70
2022/08/08 08:41:10;;;;;;;2.25;2.15;;;;;;;36.18;35.99;99448.19;5109400;28;20206;-69
2022/08/08 08:43:38;;;;;;;2.03;1.92;;;;;;;35.97;35.57;99443.03;5105153;28;20693;-70
2022/08/08 08:46:08;;;;;;;2.28;2.17;;;;;;;36.10;36.30;99435.03;5109641;28;20590;-70
2022/08/08 08:48:36;;;;;;;4.55;2.47;;;;;;;36.19;34.09;99433.78;5105118;28;20199;-69
2022/08/08 08:51:04;;;;;;;2.70;2.40;;;;;;;36.36;34.81;99428.81;5109908;28;20220;-69
2022/08/08 08:53:36;;;;;;;2.50;2.40;;;;;;;36.41;34.55;99433.50;5109869;28;20206;-68
2022/08/08 08:56:06;;;;;;;3.03;2.13;;;;;;;36.02;33.66;99432.59;5108912;28;20215;-70
2022/08/08 08:58:38;;;;;;;2.40;2.30;;;;;;;35.92;35.26;99436.72;5111286;28;20198;-69
2022/08/08 09:01:06;;;;;;;2.13;2.03;;;;;;;36.05;34.27;99421.50;5110491;28;20206;-69
2022/08/08 09:03:34;;;;;;;2.30;2.10;;;;;;;36.14;33.43;99422.94;5112783;28;20210;-69
2022/08/08 09:06:03;;;;;;;1.95;1.77;;;;;;;36.30;32.84;99425.13;5107263;28;20200;-68
2022/08/08 09:08:38;;;;;;;2.38;2.17;;;;;;;36.45;33.13;99416.84;5110760;28;20624;-70
2022/08/08 09:11:06;;;;;;;2.97;2.85;;;;;;;36.35;33.67;99413.00;5114124;28;20688;-68
2022/08/08 09:13:36;;;;;;;2.10;2.03;;;;;;;36.39;34.17;99411.53;5113076;28;20207;-70
2022/08/08 09:16:03;;;;;;;2.85;2.38;;;;;;;36.11;34.51;99404.66;5113225;28;20583;-68
2022/08/08 09:18:31;;;;;;;3.45;2.35;;;;;;;36.27;34.93;99401.53;5113748;28;20206;-68
2022/08/08 09:21:01;;;;;;;3.03;2.45;;;;;;;36.54;35.66;99396.09;5115052;28;20210;-68
2022/08/08 09:23:29;;;;;;;2.42;2.33;;;;;;;36.40;33.88;99397.97;5114931;28;20195;-68
2022/08/08 09:26:03;;;;;;;2.50;2.30;;;;;;;36.28;35.39;99395.16;5113876;28;20202;-68
2022/08/08 09:28:38;;;;;;;3.33;3.08;;;;;;;36.11;35.13;99393.97;5111534;28;20198;-68
2022/08/08 09:31:14;;;;;;;2.53;2.33;;;;;;;35.96;33.37;99388.06;5105502;28;20286;-69
2022/08/08 09:33:44;;;;;;;2.60;2.40;;;;;;;36.03;34.02;99391.50;5114438;28;20282;-68
2022/08/08 09:36:22;;;;;;;2.05;1.92;;;;;;;35.81;33.97;99387.47;5112016;28;20219;-68
2022/08/08 09:38:53;;;;;;;2.40;2.25;;;;;;;35.51;33.88;99378.25;5111961;28;20198;-68
2022/08/08 09:41:34;;;;;;;3.47;1.77;;;;;;;35.77;33.29;99386.22;5112759;28;20247;-68
2022/08/08 09:44:12;;;;;;;2.40;2.20;;;;;;;36.14;33.06;99380.22;5108022;28;20244;-68
2022/08/08 09:46:42;;;;;;;2.40;2.30;;;;;;;36.55;33.80;99385.19;5112569;28;20198;-68
2022/08/08 09:49:10;;;;;;;2.25;2.15;;;;;;;36.68;32.62;99384.28;5111855;28;20263;-68
2022/08/08 09:51:40;;;;;;;2.20;2.10;;;;;;;36.31;32.77;99378.72;5112767;28;20629;-68
2022/08/08 09:54:08;;;;;;;2.00;1.90;;;;;;;36.12;32.17;99368.94;5108080;28;20297;-68
2022/08/08 09:56:42;;;;;;;2.28;2.17;;;;;;;36.03;32.10;99372.81;5107356;28;20214;-68
2022/08/08 09:59:13;;;;;;;3.30;1.92;;;;;;;35.95;33.76;99370.41;5111921;28;20207;-67
2022/08/08 10:01:41;;;;;;;2.38;2.20;;;;;;;35.87;33.38;99370.59;5112543;28;20207;-68
2022/08/08 10:04:15;;;;;;;3.05;1.92;;;;;;;35.94;33.20;99370.59;5112719;28;20694;-68
2022/08/08 10:06:43;;;;;;;3.55;2.67;;;;;;;36.02;33.58;99365.88;5110716;27;20717;-68
2022/08/08 10:09:10;;;;;;;2.28;2.17;;;;;;;35.87;31.41;99377.81;5109405;28;20272;-69
2022/08/08 10:11:39;;;;;;;2.15;1.95;;;;;;;35.53;31.69;99366.34;5109720;28;22054;-68
2022/08/08 10:14:07;;;;;;;2.20;2.10;;;;;;;35.61;32.02;99363.47;5111059;28;20614;-69
2022/08/08 10:16:37;;;;;;;2.22;2.13;;;;;;;35.90;32.71;99364.06;5106766;28;20214;-69
2022/08/08 10:19:07;;;;;;;2.20;2.10;;;;;;;36.35;33.56;99364.94;5108230;28;20203;-68
2022/08/08 10:21:36;;;;;;;2.42;2.33;;;;;;;36.29;31.34;99363.91;5110919;28;20693;-68
2022/08/08 10:24:08;;;;;;;3.05;2.28;;;;;;;35.92;31.52;99362.00;5109945;28;20577;-67
2022/08/08 10:26:44;;;;;;;2.25;2.05;;;;;;;36.12;31.41;99352.94;5107557;28;20609;-67
2022/08/08 10:29:12;;;;;;;2.22;2.13;;;;;;;36.26;31.24;99359.81;5108047;28;20218;-67
2022/08/08 10:34:26;;;;;;;3.78;1.92;;;;;;;35.66;30.82;99357.53;5109523;28;20198;-67
2022/08/08 10:36:55;;;;;;;4.20;2.33;;;;;;;35.71;31.63;99352.38;5109277;28;20584;-67
2022/08/08 10:39:22;;;;;;;2.92;2.42;;;;;;;35.96;31.09;99345.34;5111684;28;20206;-69
2022/08/08 10:41:58;;;;;;;2.28;2.03;;;;;;;35.65;30.37;99350.56;5111583;28;20198;-67
2022/08/08 10:44:29;;;;;;;2.42;2.15;;;;;;;35.56;32.00;99336.59;5110293;28;20234;-69
2022/08/08 10:46:56;;;;;;;2.20;2.10;;;;;;;35.90;31.78;99342.72;5108292;28;20199;-68
2022/08/08 10:49:24;;;;;;;2.30;2.20;;;;;;;35.85;31.59;99340.66;5111420;28;20194;-68
2022/08/08 10:51:51;;;;;;;2.75;2.53;;;;;;;35.84;31.03;99344.34;5111543;28;20255;-68
2022/08/08 10:54:21;;;;;;;2.63;2.40;;;;;;;35.98;32.40;99334.47;5109126;28;20199;-67
2022/08/08 10:56:57;;;;;;;1.95;1.85;;;;;;;36.08;30.84;99335.69;5109566;28;20594;-67
2022/08/08 10:59:25;;;;;;;2.60;1.90;;;;;;;36.00;30.98;99321.72;5107300;28;20206;-69
2022/08/08 11:01:52;;;;;;;2.28;2.17;;;;;;;35.81;30.34;99321.59;5109801;28;20584;-67
2022/08/08 11:04:19;;;;;;;2.00;1.90;;;;;;;35.86;30.91;99320.97;5108397;28;20202;-67
2022/08/08 11:06:46;;;;;;;3.60;1.70;;;;;;;35.54;30.18;99316.50;5109080;28;20222;-68
2022/08/08 11:09:13;;;;;;;6.47;1.90;;;;;;;35.50;30.67;99320.59;5110915;28;20203;-66
2022/08/08 11:11:41;;;;;;;1.90;1.90;;;;;;;35.63;31.76;99320.63;5111755;28;20226;-68
2022/08/08 11:14:11;;;;;;;3.67;1.50;;;;;;;35.85;32.46;99305.97;5108965;28;20198;-68
2022/08/08 11:16:42;;;;;;;2.60;2.17;;;;;;;35.63;30.17;99315.28;5107941;28;20225;-67
2022/08/08 11:19:09;;;;;;;4.68;2.30;;;;;;;35.51;30.89;99308.94;5111147;28;20676;-66
2022/08/08 11:21:40;;;;;;;2.33;2.15;;;;;;;35.65;30.01;99313.22;5110877;28;20206;-67
2022/08/08 11:24:08;;;;;;;2.00;1.90;;;;;;;35.43;29.78;99299.28;5109814;28;20199;-68
2022/08/08 11:26:37;;;;;;;2.63;2.45;;;;;;;35.23;30.44;99296.66;5108408;28;20210;-68
2022/08/08 11:29:05;;;;;;;2.47;1.88;;;;;;;35.04;30.32;99302.78;5108817;28;20202;-68
2022/08/08 11:31:36;;;;;;;2.38;2.17;;;;;;;35.29;31.73;99295.00;5110330;28;20207;-68
2022/08/08 11:34:05;;;;;;;2.17;1.90;;;;;;;35.52;30.49;99297.22;5109127;28;20294;-67
2022/08/08 11:36:32;;;;;;;1.70;1.60;;;;;;;35.64;30.65;99295.59;5109317;28;20206;-68
2022/08/08 11:39:00;;;;;;;2.10;2.00;;;;;;;35.84;30.34;99288.31;5108973;28;20210;-68
2022/08/08 11:41:28;;;;;;;2.20;1.70;;;;;;;35.92;30.23;99288.09;5109442;28;20199;-67
2022/08/08 11:43:55;;;;;;;3.00;2.10;;;;;;;35.89;31.74;99283.19;5108044;28;20207;-68
2022/08/08 11:46:24;;;;;;;2.38;1.88;;;;;;;35.90;29.16;99284.00;5109377;28;20689;-68
2022/08/08 11:48:53;;;;;;;1.63;1.63;;;;;;;35.84;29.26;99291.00;5109477;28;20194;-67
2022/08/08 11:51:23;;;;;;;1.92;1.80;;;;;;;35.97;29.06;99285.59;5109237;28;20256;-67
2022/08/08 11:53:51;;;;;;;1.83;1.73;;;;;;;35.98;29.84;99281.09;5110601;28;20594;-67
2022/08/08 11:56:20;;;;;;;2.55;1.30;;;;;;;36.05;28.15;99277.38;5107602;28;20202;-68
2022/08/08 11:58:47;;;;;;;2.30;1.60;;;;;;;36.24;29.55;99280.97;5108146;28;20260;-69
2022/08/08 12:01:14;;;;;;;4.78;1.70;;;;;;;36.38;27.86;99282.56;5109560;28;20595;-68
2022/08/08 12:03:46;;;;;;;1.50;1.50;;;;;;;36.26;28.24;99286.91;5105169;28;20191;-68
2022/08/08 12:06:15;;;;;;;2.85;1.70;;;;;;;36.04;27.81;99286.38;5106327;28;20307;-69
2022/08/08 12:08:42;;;;;;;1.45;1.45;;;;;;;36.30;29.63;99280.94;5109627;28;21093;-71
2022/08/08 12:11:13;;;;;;;4.32;1.50;;;;;;;36.64;28.27;99281.59;5107247;28;20217;-67